sensor_id;sensor_type;location;lat;lon;timestamp;pressure;altitude;pressure_sealevel;temperature;humidity
64616;BME280;51027;42.162;24.754;2023-06-19T03:31:03;99593.31;;;19.78;94.14
64616;BME280;51027;42.162;24.754;2023-06-19T03:33:28;99596.72;;;19.80;94.11
64616;BME280;51027;42.162;24.754;2023-06-19T03:35:55;99595.75;;;19.70;94.40
64616;BME280;51027;42.162;24.754;2023-06-19T03:38:20;99582.03;;;19.75;94.51
64616;BME280;51027;42.162;24.754;2023-06-19T03:40:46;99599.03;;;19.74;94.69
64616;BME280;51027;42.162;24.754;2023-06-19T03:43:11;99579.38;;;19.75;94.53
64616;BME280;51027;42.162;24.754;2023-06-19T03:45:36;99584.44;;;19.78;94.66
64616;BME280;51027;42.162;24.754;2023-06-19T03:48:02;99584.31;;;19.68;94.91
64616;BME280;51027;42.162;24.754;2023-06-19T03:50:27;99580.22;;;19.75;94.49
64616;BME280;51027;42.162;24.754;2023-06-19T03:52:53;99602.19;;;19.90;94.31
64616;BME280;51027;42.162;24.754;2023-06-19T03:55:18;99596.97;;;19.89;93.25
64616;BME280;51027;42.162;24.754;2023-06-19T03:57:44;99595.88;;;19.91;93.50
64616;BME280;51027;42.162;24.754;2023-06-19T04:00:09;99584.56;;;19.99;93.40
64616;BME280;51027;42.162;24.754;2023-06-19T04:02:38;99579.72;;;20.15;91.35
64616;BME280;51027;42.162;24.754;2023-06-19T04:05:04;99575.66;;;20.21;91.36
64616;BME280;51027;42.162;24.754;2023-06-19T04:07:30;99584.28;;;20.35;90.85
64616;BME280;51027;42.162;24.754;2023-06-19T04:09:57;99589.97;;;20.42;90.90
64616;BME280;51027;42.162;24.754;2023-06-19T04:12:22;99583.78;;;20.41;90.58
64616;BME280;51027;42.162;24.754;2023-06-19T04:14:47;99572.75;;;20.46;89.79
64616;BME280;51027;42.162;24.754;2023-06-19T04:17:14;99579.28;;;20.53;89.33
64616;BME280;51027;42.162;24.754;2023-06-19T04:19:39;99560.81;;;20.50;89.40
64616;BME280;51027;42.162;24.754;2023-06-19T04:22:05;99576.69;;;20.63;88.64
64616;BME280;51027;42.162;24.754;2023-06-19T04:24:30;99558.47;;;20.57;88.13
64616;BME280;51027;42.162;24.754;2023-06-19T04:26:55;99575.84;;;20.62;87.74
64616;BME280;51027;42.162;24.754;2023-06-19T04:29:21;99571.56;;;20.71;87.10
64616;BME280;51027;42.162;24.754;2023-06-19T04:31:47;99568.69;;;20.84;86.45
64616;BME280;51027;42.162;24.754;2023-06-19T04:34:15;99574.81;;;20.86;86.13
64616;BME280;51027;42.162;24.754;2023-06-19T04:36:40;99578.50;;;20.94;85.67
64616;BME280;51027;42.162;24.754;2023-06-19T04:39:06;99578.47;;;21.06;86.13
64616;BME280;51027;42.162;24.754;2023-06-19T04:41:31;99575.06;;;21.04;84.64
64616;BME280;51027;42.162;24.754;2023-06-19T04:43:57;99578.47;;;21.06;84.69
64616;BME280;51027;42.162;24.754;2023-06-19T04:46:22;99569.53;;;21.16;84.55
64616;BME280;51027;42.162;24.754;2023-06-19T04:48:48;99583.03;;;21.26;83.69
64616;BME280;51027;42.162;24.754;2023-06-19T04:51:17;99583.69;;;21.39;83.89
64616;BME280;51027;42.162;24.754;2023-06-19T04:53:46;99591.56;;;21.41;83.21
64616;BME280;51027;42.162;24.754;2023-06-19T04:56:11;99585.38;;;21.40;83.05
64616;BME280;51027;42.162;24.754;2023-06-19T04:58:37;99571.31;;;21.48;83.10
64616;BME280;51027;42.162;24.754;2023-06-19T05:01:09;99559.19;;;21.53;83.22
64616;BME280;51027;42.162;24.754;2023-06-19T05:03:35;99577.16;;;21.63;82.73
64616;BME280;51027;42.162;24.754;2023-06-19T05:06:00;99578.72;;;21.65;82.11
64616;BME280;51027;42.162;24.754;2023-06-19T05:08:26;99565.28;;;21.55;81.92
64616;BME280;51027;42.162;24.754;2023-06-19T05:10:51;99570.44;;;21.68;82.20
64616;BME280;51027;42.162;24.754;2023-06-19T05:13:18;99578.25;;;21.81;82.00
64616;BME280;51027;42.162;24.754;2023-06-19T05:15:44;99564.84;;;21.81;80.89
64616;BME280;51027;42.162;24.754;2023-06-19T05:18:09;99582.09;;;21.88;80.83
64616;BME280;51027;42.162;24.754;2023-06-19T05:20:35;99580.66;;;21.84;80.29
64616;BME280;51027;42.162;24.754;2023-06-19T05:23:00;99569.34;;;21.80;80.10
64616;BME280;51027;42.162;24.754;2023-06-19T05:25:26;99575.16;;;21.85;79.73
64616;BME280;51027;42.162;24.754;2023-06-19T05:27:52;99574.25;;;22.06;79.64
64616;BME280;51027;42.162;24.754;2023-06-19T05:30:18;99584.41;;;22.02;78.81
64616;BME280;51027;42.162;24.754;2023-06-19T05:32:43;99591.53;;;22.13;79.14
64616;BME280;51027;42.162;24.754;2023-06-19T05:35:08;99578.69;;;22.07;77.86
64616;BME280;51027;42.162;24.754;2023-06-19T05:37:34;99592.72;;;22.30;77.39
64616;BME280;51027;42.162;24.754;2023-06-19T05:39:59;99594.69;;;22.28;77.51
64616;BME280;51027;42.162;24.754;2023-06-19T05:42:25;99586.53;;;22.39;76.92
64616;BME280;51027;42.162;24.754;2023-06-19T05:44:50;99580.28;;;22.29;77.09
64616;BME280;51027;42.162;24.754;2023-06-19T05:47:15;99583.72;;;22.50;76.56
64616;BME280;51027;42.162;24.754;2023-06-19T05:49:42;99584.59;;;22.60;75.35
64616;BME280;51027;42.162;24.754;2023-06-19T05:52:08;99599.41;;;22.64;74.63
64616;BME280;51027;42.162;24.754;2023-06-19T05:54:34;99592.22;;;22.65;74.96
64616;BME280;51027;42.162;24.754;2023-06-19T05:56:59;99587.84;;;22.64;74.05
64616;BME280;51027;42.162;24.754;2023-06-19T05:59:25;99577.81;;;22.76;73.54
64616;BME280;51027;42.162;24.754;2023-06-19T06:01:50;99586.72;;;22.76;73.62
64616;BME280;51027;42.162;24.754;2023-06-19T06:04:16;99584.22;;;22.94;73.52
64616;BME280;51027;42.162;24.754;2023-06-19T06:06:42;99593.69;;;22.98;72.84
64616;BME280;51027;42.162;24.754;2023-06-19T06:09:08;99603.16;;;23.12;72.46
64616;BME280;51027;42.162;24.754;2023-06-19T06:11:37;99595.78;;;23.23;73.32
64616;BME280;51027;42.162;24.754;2023-06-19T06:14:03;99596.47;;;23.35;72.68
64616;BME280;51027;42.162;24.754;2023-06-19T06:16:29;99599.47;;;23.32;72.49
64616;BME280;51027;42.162;24.754;2023-06-19T06:18:54;99594.66;;;23.26;72.29
64616;BME280;51027;42.162;24.754;2023-06-19T06:21:19;99591.38;;;23.51;72.94
64616;BME280;51027;42.162;24.754;2023-06-19T06:23:45;99593.75;;;23.54;71.80
64616;BME280;51027;42.162;24.754;2023-06-19T06:26:13;99600.00;;;23.65;72.09
64616;BME280;51027;42.162;24.754;2023-06-19T06:28:40;99604.81;;;23.71;72.27
64616;BME280;51027;42.162;24.754;2023-06-19T06:31:06;99591.56;;;23.87;71.75
64616;BME280;51027;42.162;24.754;2023-06-19T06:33:32;99593.53;;;23.95;71.42
64616;BME280;51027;42.162;24.754;2023-06-19T06:35:59;99594.38;;;23.95;70.80
64616;BME280;51027;42.162;24.754;2023-06-19T06:38:25;99591.03;;;24.11;70.77
64616;BME280;51027;42.162;24.754;2023-06-19T06:40:52;99597.72;;;24.07;69.14
64616;BME280;51027;42.162;24.754;2023-06-19T06:43:18;99591.19;;;24.09;70.62
64616;BME280;51027;42.162;24.754;2023-06-19T06:45:43;99584.47;;;24.23;70.02
64616;BME280;51027;42.162;24.754;2023-06-19T06:48:09;99580.47;;;24.27;69.63
64616;BME280;51027;42.162;24.754;2023-06-19T06:50:34;99589.78;;;24.42;70.47
64616;BME280;51027;42.162;24.754;2023-06-19T06:53:00;99591.06;;;24.38;69.94
64616;BME280;51027;42.162;24.754;2023-06-19T06:55:26;99578.63;;;24.28;68.70
64616;BME280;51027;42.162;24.754;2023-06-19T06:57:51;99590.06;;;24.39;67.45
64616;BME280;51027;42.162;24.754;2023-06-19T07:00:17;99599.44;;;24.35;65.99
64616;BME280;51027;42.162;24.754;2023-06-19T07:02:43;99598.44;;;24.64;67.01
64616;BME280;51027;42.162;24.754;2023-06-19T07:05:09;99601.13;;;24.64;65.18
64616;BME280;51027;42.162;24.754;2023-06-19T07:07:35;99601.03;;;24.91;65.75
64616;BME280;51027;42.162;24.754;2023-06-19T07:10:00;99599.25;;;24.82;66.14
64616;BME280;51027;42.162;24.754;2023-06-19T07:12:26;99600.44;;;24.97;64.42
64616;BME280;51027;42.162;24.754;2023-06-19T07:14:54;99610.97;;;24.91;64.66
64616;BME280;51027;42.162;24.754;2023-06-19T07:17:20;99608.97;;;24.93;63.97
64616;BME280;51027;42.162;24.754;2023-06-19T07:19:46;99611.41;;;25.14;64.26
64616;BME280;51027;42.162;24.754;2023-06-19T07:22:11;99615.47;;;25.18;63.31
64616;BME280;51027;42.162;24.754;2023-06-19T07:24:37;99605.25;;;25.04;63.00
64616;BME280;51027;42.162;24.754;2023-06-19T07:27:02;99609.22;;;25.35;62.64
64616;BME280;51027;42.162;24.754;2023-06-19T07:29:28;99620.38;;;25.40;63.10
64616;BME280;51027;42.162;24.754;2023-06-19T07:31:53;99603.00;;;25.17;61.68
64616;BME280;51027;42.162;24.754;2023-06-19T07:34:19;99611.66;;;25.46;61.95
64616;BME280;51027;42.162;24.754;2023-06-19T07:36:44;99613.97;;;25.41;61.10
64616;BME280;51027;42.162;24.754;2023-06-19T07:39:10;99608.88;;;25.56;61.22
64616;BME280;51027;42.162;24.754;2023-06-19T07:41:36;99608.69;;;25.75;60.94
64616;BME280;51027;42.162;24.754;2023-06-19T07:44:01;99600.03;;;25.98;60.39
64616;BME280;51027;42.162;24.754;2023-06-19T07:46:26;99594.09;;;25.94;60.10
64616;BME280;51027;42.162;24.754;2023-06-19T07:48:52;99594.66;;;25.98;59.97
64616;BME280;51027;42.162;24.754;2023-06-19T07:51:17;99605.50;;;26.06;60.21
64616;BME280;51027;42.162;24.754;2023-06-19T07:53:43;99597.53;;;26.04;58.50
64616;BME280;51027;42.162;24.754;2023-06-19T07:56:08;99592.84;;;26.14;57.11
64616;BME280;51027;42.162;24.754;2023-06-19T07:58:34;99592.09;;;25.96;56.88
64616;BME280;51027;42.162;24.754;2023-06-19T08:01:00;99607.06;;;26.25;57.29
64616;BME280;51027;42.162;24.754;2023-06-19T08:03:26;99615.88;;;26.35;57.80
64616;BME280;51027;42.162;24.754;2023-06-19T08:05:51;99611.06;;;26.38;56.47
64616;BME280;51027;42.162;24.754;2023-06-19T08:08:16;99605.00;;;26.53;55.90
64616;BME280;51027;42.162;24.754;2023-06-19T08:10:42;99603.34;;;26.60;55.93
64616;BME280;51027;42.162;24.754;2023-06-19T08:13:07;99602.78;;;26.40;57.34
64616;BME280;51027;42.162;24.754;2023-06-19T08:15:33;99612.44;;;26.51;55.45
64616;BME280;51027;42.162;24.754;2023-06-19T08:17:58;99601.97;;;26.48;55.03
64616;BME280;51027;42.162;24.754;2023-06-19T08:20:23;99613.09;;;26.53;54.87
64616;BME280;51027;42.162;24.754;2023-06-19T08:22:49;99601.19;;;26.80;53.55
64616;BME280;51027;42.162;24.754;2023-06-19T08:25:15;99610.31;;;26.79;53.92
64616;BME280;51027;42.162;24.754;2023-06-19T08:27:40;99605.94;;;26.78;53.80
64616;BME280;51027;42.162;24.754;2023-06-19T08:30:06;99609.81;;;26.83;54.64
64616;BME280;51027;42.162;24.754;2023-06-19T08:32:32;99611.38;;;27.02;53.78
64616;BME280;51027;42.162;24.754;2023-06-19T08:34:58;99608.53;;;27.12;53.79
64616;BME280;51027;42.162;24.754;2023-06-19T08:37:23;99609.00;;;27.07;52.91
64616;BME280;51027;42.162;24.754;2023-06-19T08:39:49;99615.09;;;27.25;53.50
64616;BME280;51027;42.162;24.754;2023-06-19T08:42:14;99617.41;;;26.96;51.05
64616;BME280;51027;42.162;24.754;2023-06-19T08:44:40;99612.25;;;27.43;50.95
64616;BME280;51027;42.162;24.754;2023-06-19T08:47:05;99614.75;;;27.61;51.19
64616;BME280;51027;42.162;24.754;2023-06-19T08:49:34;99607.84;;;27.67;50.01
64616;BME280;51027;42.162;24.754;2023-06-19T08:52:03;99603.91;;;27.77;49.92
64616;BME280;51027;42.162;24.754;2023-06-19T08:54:29;99605.13;;;27.75;49.79
64616;BME280;51027;42.162;24.754;2023-06-19T08:56:54;99611.91;;;28.18;50.16
64616;BME280;51027;42.162;24.754;2023-06-19T08:59:20;99600.28;;;28.09;50.03
64616;BME280;51027;42.162;24.754;2023-06-19T09:01:47;99603.50;;;28.05;50.05
64616;BME280;51027;42.162;24.754;2023-06-19T09:04:21;99603.69;;;28.03;50.17
64616;BME280;51027;42.162;24.754;2023-06-19T09:07:00;99597.94;;;27.98;50.64
64616;BME280;51027;42.162;24.754;2023-06-19T09:09:27;99600.91;;;28.28;49.83
64616;BME280;51027;42.162;24.754;2023-06-19T09:14:55;99556.06;;;28.17;49.69
64616;BME280;51027;42.162;24.754;2023-06-19T09:17:21;99587.47;;;28.43;48.16
64616;BME280;51027;42.162;24.754;2023-06-19T09:19:51;99597.97;;;28.46;47.94
64616;BME280;51027;42.162;24.754;2023-06-19T09:22:18;99589.19;;;27.88;49.50
64616;BME280;51027;42.162;24.754;2023-06-19T09:24:43;99584.56;;;28.52;48.40
64616;BME280;51027;42.162;24.754;2023-06-19T09:27:14;99590.59;;;28.85;48.73
64616;BME280;51027;42.162;24.754;2023-06-19T09:29:44;99597.28;;;28.75;47.28
64616;BME280;51027;42.162;24.754;2023-06-19T09:32:20;99593.72;;;28.74;47.99
64616;BME280;51027;42.162;24.754;2023-06-19T09:34:47;99596.13;;;28.69;47.16
64616;BME280;51027;42.162;24.754;2023-06-19T09:37:13;99579.97;;;28.53;47.34
64616;BME280;51027;42.162;24.754;2023-06-19T09:39:40;99585.19;;;28.85;47.66
64616;BME280;51027;42.162;24.754;2023-06-19T09:42:08;99584.53;;;29.06;47.45
64616;BME280;51027;42.162;24.754;2023-06-19T09:44:42;99582.50;;;29.08;45.98
64616;BME280;51027;42.162;24.754;2023-06-19T09:47:17;99577.63;;;29.04;45.89
64616;BME280;51027;42.162;24.754;2023-06-19T09:49:49;99570.94;;;29.29;46.04
64616;BME280;51027;42.162;24.754;2023-06-19T09:52:15;99568.50;;;28.43;46.10
64616;BME280;51027;42.162;24.754;2023-06-19T09:54:41;99565.25;;;29.01;46.03
64616;BME280;51027;42.162;24.754;2023-06-19T09:57:10;99570.47;;;28.80;45.53
64616;BME280;51027;42.162;24.754;2023-06-19T09:59:38;99563.31;;;29.10;44.89
64616;BME280;51027;42.162;24.754;2023-06-19T10:02:05;99562.22;;;29.19;46.12
64616;BME280;51027;42.162;24.754;2023-06-19T10:05:02;99569.84;;;29.38;44.69
64616;BME280;51027;42.162;24.754;2023-06-19T10:07:35;99562.53;;;29.24;43.46
64616;BME280;51027;42.162;24.754;2023-06-19T10:10:09;99562.81;;;29.29;43.15
64616;BME280;51027;42.162;24.754;2023-06-19T10:12:47;99545.78;;;29.58;43.86
64616;BME280;51027;42.162;24.754;2023-06-19T10:15:17;99556.94;;;29.40;42.00
64616;BME280;51027;42.162;24.754;2023-06-19T10:17:46;99543.09;;;29.35;43.12
64616;BME280;51027;42.162;24.754;2023-06-19T10:20:33;99553.44;;;29.54;43.80
64616;BME280;51027;42.162;24.754;2023-06-19T10:25:40;99543.63;;;29.31;43.25
64616;BME280;51027;42.162;24.754;2023-06-19T10:28:35;99553.16;;;29.49;42.84
64616;BME280;51027;42.162;24.754;2023-06-19T10:31:06;99548.47;;;29.73;43.44
64616;BME280;51027;42.162;24.754;2023-06-19T10:33:33;99537.63;;;29.88;42.23
64616;BME280;51027;42.162;24.754;2023-06-19T10:36:17;99542.97;;;29.81;40.88
64616;BME280;51027;42.162;24.754;2023-06-19T10:38:45;99542.88;;;29.89;41.49
64616;BME280;51027;42.162;24.754;2023-06-19T10:41:16;99532.66;;;29.91;41.79
64616;BME280;51027;42.162;24.754;2023-06-19T10:43:52;99528.53;;;29.80;42.87
64616;BME280;51027;42.162;24.754;2023-06-19T10:46:18;99502.63;;;29.78;42.56
64616;BME280;51027;42.162;24.754;2023-06-19T10:48:44;99519.75;;;29.64;41.58
64616;BME280;51027;42.162;24.754;2023-06-19T10:51:11;99513.09;;;29.66;41.93
64616;BME280;51027;42.162;24.754;2023-06-19T10:53:36;99533.91;;;29.74;41.63
64616;BME280;51027;42.162;24.754;2023-06-19T10:56:02;99488.47;;;29.68;41.00
64616;BME280;51027;42.162;24.754;2023-06-19T10:58:28;99521.97;;;30.04;41.89
64616;BME280;51027;42.162;24.754;2023-06-19T11:00:54;99514.94;;;30.25;42.47
64616;BME280;51027;42.162;24.754;2023-06-19T11:03:20;99520.00;;;30.13;40.48
64616;BME280;51027;42.162;24.754;2023-06-19T11:05:47;99513.63;;;30.57;40.80
64616;BME280;51027;42.162;24.754;2023-06-19T11:08:20;99506.28;;;30.36;41.80
64616;BME280;51027;42.162;24.754;2023-06-19T11:10:46;99508.66;;;30.24;41.90
64616;BME280;51027;42.162;24.754;2023-06-19T11:13:19;99501.38;;;30.25;41.16
64616;BME280;51027;42.162;24.754;2023-06-19T11:15:47;99505.47;;;30.57;41.84
64616;BME280;51027;42.162;24.754;2023-06-19T11:18:14;99511.09;;;30.55;39.73
64616;BME280;51027;42.162;24.754;2023-06-19T11:20:47;99505.38;;;30.29;38.74
64616;BME280;51027;42.162;24.754;2023-06-19T11:23:14;99498.06;;;30.51;39.62
64616;BME280;51027;42.162;24.754;2023-06-19T11:25:41;99508.44;;;30.62;40.01
64616;BME280;51027;42.162;24.754;2023-06-19T11:28:14;99494.28;;;30.45;39.70
64616;BME280;51027;42.162;24.754;2023-06-19T11:30:41;99500.59;;;30.52;38.86
64616;BME280;51027;42.162;24.754;2023-06-19T11:33:19;99499.44;;;30.61;38.70
64616;BME280;51027;42.162;24.754;2023-06-19T11:35:52;99463.78;;;30.50;39.30
64616;BME280;51027;42.162;24.754;2023-06-19T11:38:22;99495.34;;;30.51;38.66
64616;BME280;51027;42.162;24.754;2023-06-19T11:40:48;99489.63;;;30.82;39.56
64616;BME280;51027;42.162;24.754;2023-06-19T11:43:31;99484.59;;;30.79;39.00
64616;BME280;51027;42.162;24.754;2023-06-19T11:46:05;99488.00;;;31.15;39.40
64616;BME280;51027;42.162;24.754;2023-06-19T11:48:31;99491.91;;;30.63;40.00
64616;BME280;51027;42.162;24.754;2023-06-19T11:50:56;99488.38;;;30.84;41.07
64616;BME280;51027;42.162;24.754;2023-06-19T11:53:24;99469.50;;;30.76;40.42
64616;BME280;51027;42.162;24.754;2023-06-19T11:55:50;99485.91;;;31.11;39.77
64616;BME280;51027;42.162;24.754;2023-06-19T11:58:15;99492.16;;;30.83;40.23
64616;BME280;51027;42.162;24.754;2023-06-19T12:00:42;99476.00;;;31.03;39.42
64616;BME280;51027;42.162;24.754;2023-06-19T12:03:08;99479.47;;;31.18;39.86
64616;BME280;51027;42.162;24.754;2023-06-19T12:05:34;99474.41;;;31.15;38.72
64616;BME280;51027;42.162;24.754;2023-06-19T12:08:00;99471.97;;;30.71;39.06
64616;BME280;51027;42.162;24.754;2023-06-19T12:10:28;99461.13;;;30.56;40.20
64616;BME280;51027;42.162;24.754;2023-06-19T12:12:53;99470.19;;;31.06;39.90
64616;BME280;51027;42.162;24.754;2023-06-19T12:15:19;99464.41;;;30.94;39.96
64616;BME280;51027;42.162;24.754;2023-06-19T12:17:45;99456.19;;;31.16;39.93
64616;BME280;51027;42.162;24.754;2023-06-19T12:20:12;99446.56;;;31.41;38.74
64616;BME280;51027;42.162;24.754;2023-06-19T12:22:38;99450.34;;;31.40;37.69
64616;BME280;51027;42.162;24.754;2023-06-19T12:25:04;99465.75;;;31.05;39.80
64616;BME280;51027;42.162;24.754;2023-06-19T12:27:30;99452.06;;;30.92;40.95
64616;BME280;51027;42.162;24.754;2023-06-19T12:29:55;99444.69;;;30.86;41.03
64616;BME280;51027;42.162;24.754;2023-06-19T12:32:22;99445.59;;;30.72;38.68
64616;BME280;51027;42.162;24.754;2023-06-19T12:34:47;99415.78;;;30.85;37.50
64616;BME280;51027;42.162;24.754;2023-06-19T12:37:16;99441.25;;;31.05;37.59
64616;BME280;51027;42.162;24.754;2023-06-19T12:39:46;99439.50;;;31.19;38.66
64616;BME280;51027;42.162;24.754;2023-06-19T12:42:11;99396.75;;;30.85;39.64
64616;BME280;51027;42.162;24.754;2023-06-19T12:44:40;99435.59;;;31.28;37.96
64616;BME280;51027;42.162;24.754;2023-06-19T12:47:06;99423.69;;;31.36;39.12
64616;BME280;51027;42.162;24.754;2023-06-19T12:49:32;99437.59;;;31.82;39.03
64616;BME280;51027;42.162;24.754;2023-06-19T12:51:57;99430.81;;;31.71;37.54
64616;BME280;51027;42.162;24.754;2023-06-19T12:54:23;99434.78;;;31.69;36.61
64616;BME280;51027;42.162;24.754;2023-06-19T12:56:49;99427.44;;;31.69;36.65
64616;BME280;51027;42.162;24.754;2023-06-19T12:59:15;99432.19;;;31.54;36.65
64616;BME280;51027;42.162;24.754;2023-06-19T13:01:41;99436.56;;;31.55;36.69
64616;BME280;51027;42.162;24.754;2023-06-19T13:04:06;99412.53;;;31.24;37.52
64616;BME280;51027;42.162;24.754;2023-06-19T13:06:32;99410.47;;;30.98;39.02
64616;BME280;51027;42.162;24.754;2023-06-19T13:08:57;99428.97;;;31.37;40.17
64616;BME280;51027;42.162;24.754;2023-06-19T13:11:23;99420.03;;;31.50;39.93
64616;BME280;51027;42.162;24.754;2023-06-19T13:13:48;99423.53;;;31.37;39.48
64616;BME280;51027;42.162;24.754;2023-06-19T13:16:14;99427.91;;;31.38;39.42
64616;BME280;51027;42.162;24.754;2023-06-19T13:18:41;99424.41;;;31.51;39.80
64616;BME280;51027;42.162;24.754;2023-06-19T13:21:07;99430.53;;;31.25;40.01
64616;BME280;51027;42.162;24.754;2023-06-19T13:23:32;99433.53;;;31.37;38.77
64616;BME280;51027;42.162;24.754;2023-06-19T13:25:57;99423.94;;;31.75;39.30
64616;BME280;51027;42.162;24.754;2023-06-19T13:28:23;99432.22;;;32.08;38.86
64616;BME280;51027;42.162;24.754;2023-06-19T13:30:49;99421.59;;;31.72;37.10
64616;BME280;51027;42.162;24.754;2023-06-19T13:33:15;99418.56;;;31.19;39.52
64616;BME280;51027;42.162;24.754;2023-06-19T13:35:41;99414.88;;;31.06;39.96
64616;BME280;51027;42.162;24.754;2023-06-19T13:38:07;99405.03;;;30.98;40.24
64616;BME280;51027;42.162;24.754;2023-06-19T13:40:35;99423.03;;;31.27;40.83
64616;BME280;51027;42.162;24.754;2023-06-19T13:43:01;99419.59;;;31.18;40.58
64616;BME280;51027;42.162;24.754;2023-06-19T13:45:29;99421.19;;;30.57;41.78
64616;BME280;51027;42.162;24.754;2023-06-19T13:47:55;99421.97;;;30.08;42.43
64616;BME280;51027;42.162;24.754;2023-06-19T13:50:21;99414.06;;;30.13;43.23
64616;BME280;51027;42.162;24.754;2023-06-19T13:52:46;99418.91;;;29.81;44.36
64616;BME280;51027;42.162;24.754;2023-06-19T13:55:13;99430.00;;;30.16;44.20
64616;BME280;51027;42.162;24.754;2023-06-19T13:57:40;99416.41;;;30.01;44.71
64616;BME280;51027;42.162;24.754;2023-06-19T14:00:07;99425.16;;;29.97;45.39
64616;BME280;51027;42.162;24.754;2023-06-19T14:02:34;99412.13;;;29.56;45.82
64616;BME280;51027;42.162;24.754;2023-06-19T14:04:59;99423.56;;;30.24;45.17
64616;BME280;51027;42.162;24.754;2023-06-19T14:07:25;99418.09;;;30.38;43.80
64616;BME280;51027;42.162;24.754;2023-06-19T14:09:51;99412.72;;;29.73;45.49
64616;BME280;51027;42.162;24.754;2023-06-19T14:12:18;99407.63;;;29.48;45.92
64616;BME280;51027;42.162;24.754;2023-06-19T14:14:44;99416.31;;;29.29;45.67
64616;BME280;51027;42.162;24.754;2023-06-19T14:17:09;99419.88;;;29.74;44.11
64616;BME280;51027;42.162;24.754;2023-06-19T14:19:35;99428.38;;;30.22;44.42
64616;BME280;51027;42.162;24.754;2023-06-19T14:22:00;99421.31;;;29.91;44.66
64616;BME280;51027;42.162;24.754;2023-06-19T14:24:27;99433.63;;;29.58;46.33
64616;BME280;51027;42.162;24.754;2023-06-19T14:26:53;99424.38;;;29.52;46.13
64616;BME280;51027;42.162;24.754;2023-06-19T14:29:18;99425.78;;;29.48;46.60
64616;BME280;51027;42.162;24.754;2023-06-19T14:31:46;99418.63;;;29.47;45.64
64616;BME280;51027;42.162;24.754;2023-06-19T14:34:11;99426.31;;;29.43;45.24
64616;BME280;51027;42.162;24.754;2023-06-19T14:36:38;99406.47;;;29.28;46.08
64616;BME280;51027;42.162;24.754;2023-06-19T14:39:03;99419.28;;;29.19;44.77
64616;BME280;51027;42.162;24.754;2023-06-19T14:41:28;99420.91;;;29.14;45.88
64616;BME280;51027;42.162;24.754;2023-06-19T14:43:54;99418.91;;;29.08;46.01
64616;BME280;51027;42.162;24.754;2023-06-19T14:46:19;99413.09;;;28.96;46.06
64616;BME280;51027;42.162;24.754;2023-06-19T14:48:45;99421.47;;;28.86;46.25
64616;BME280;51027;42.162;24.754;2023-06-19T14:51:10;99420.81;;;28.84;46.39
64616;BME280;51027;42.162;24.754;2023-06-19T14:53:37;99416.69;;;28.74;49.96
64616;BME280;51027;42.162;24.754;2023-06-19T14:56:02;99390.16;;;28.46;51.88
64616;BME280;51027;42.162;24.754;2023-06-19T14:58:28;99412.44;;;28.56;49.49
64616;BME280;51027;42.162;24.754;2023-06-19T15:00:54;99415.88;;;28.88;51.52
64616;BME280;51027;42.162;24.754;2023-06-19T15:03:19;99396.78;;;28.81;52.63
64616;BME280;51027;42.162;24.754;2023-06-19T15:05:45;99420.44;;;28.73;53.83
64616;BME280;51027;42.162;24.754;2023-06-19T15:08:10;99419.00;;;28.62;54.08
64616;BME280;51027;42.162;24.754;2023-06-19T15:10:36;99412.44;;;28.56;54.32
64616;BME280;51027;42.162;24.754;2023-06-19T15:13:02;99404.31;;;28.56;54.10
64616;BME280;51027;42.162;24.754;2023-06-19T15:15:27;99418.38;;;28.75;53.24
64616;BME280;51027;42.162;24.754;2023-06-19T15:17:53;99414.06;;;29.03;53.88
64616;BME280;51027;42.162;24.754;2023-06-19T15:20:18;99414.25;;;28.79;54.13
64616;BME280;51027;42.162;24.754;2023-06-19T15:22:46;99417.69;;;28.95;54.22
64616;BME280;51027;42.162;24.754;2023-06-19T15:25:11;99411.16;;;29.34;54.18
64616;BME280;51027;42.162;24.754;2023-06-19T15:27:37;99426.34;;;29.58;53.00
64616;BME280;51027;42.162;24.754;2023-06-19T15:30:03;99406.09;;;29.61;47.78
64616;BME280;51027;42.162;24.754;2023-06-19T15:32:29;99428.91;;;29.81;49.55
64616;BME280;51027;42.162;24.754;2023-06-19T15:34:54;99425.84;;;29.84;45.95
64616;BME280;51027;42.162;24.754;2023-06-19T15:37:20;99436.22;;;29.80;46.15
64616;BME280;51027;42.162;24.754;2023-06-19T15:39:45;99440.25;;;29.85;45.21
64616;BME280;51027;42.162;24.754;2023-06-19T15:42:11;99432.50;;;29.67;45.06
64616;BME280;51027;42.162;24.754;2023-06-19T15:44:36;99437.78;;;29.53;45.96
64616;BME280;51027;42.162;24.754;2023-06-19T15:47:02;99449.34;;;29.77;46.11
64616;BME280;51027;42.162;24.754;2023-06-19T15:49:27;99441.75;;;29.72;46.36
64616;BME280;51027;42.162;24.754;2023-06-19T15:51:52;99438.59;;;29.69;46.63
64616;BME280;51027;42.162;24.754;2023-06-19T15:54:18;99438.50;;;29.62;46.48
64616;BME280;51027;42.162;24.754;2023-06-19T15:56:46;99454.41;;;29.65;44.49
64616;BME280;51027;42.162;24.754;2023-06-19T15:59:12;99458.44;;;29.54;44.55
64616;BME280;51027;42.162;24.754;2023-06-19T16:01:39;99457.84;;;29.30;45.06
64616;BME280;51027;42.162;24.754;2023-06-19T16:04:04;99453.81;;;29.40;44.54
64616;BME280;51027;42.162;24.754;2023-06-19T16:06:30;99457.19;;;29.42;41.30
64616;BME280;51027;42.162;24.754;2023-06-19T16:08:55;99464.66;;;29.40;42.05
64616;BME280;51027;42.162;24.754;2023-06-19T16:11:24;99466.94;;;29.37;40.60
64616;BME280;51027;42.162;24.754;2023-06-19T16:13:50;99467.94;;;29.21;38.32
64616;BME280;51027;42.162;24.754;2023-06-19T16:16:15;99470.47;;;29.37;38.57
64616;BME280;51027;42.162;24.754;2023-06-19T16:18:41;99457.19;;;29.27;37.47
64616;BME280;51027;42.162;24.754;2023-06-19T16:21:07;99480.31;;;29.38;38.58
64616;BME280;51027;42.162;24.754;2023-06-19T16:23:32;99481.78;;;29.26;35.24